createdAt,value
2018-01-21T00:00:49.310Z,30.73
2018-01-21T00:02:55.380Z,29.80
2018-01-21T00:05:01.495Z,29.67
2018-01-21T00:07:07.994Z,25.80
2018-01-21T00:09:13.911Z,25.33
2018-01-21T00:11:19.643Z,23.03
2018-01-21T00:13:25.621Z,25.47
2018-01-21T00:15:31.927Z,24.07
2018-01-21T00:17:37.840Z,18.67
2018-01-21T00:19:43.407Z,22.17
2018-01-21T00:21:49.367Z,180.90
2018-01-21T00:23:55.067Z,223.30
2018-01-21T00:26:00.785Z,201.17
2018-01-21T00:28:06.929Z,226.70
2018-01-21T00:30:12.917Z,244.37
2018-01-21T00:32:20.303Z,221.13
2018-01-21T00:34:26.027Z,212.53
2018-01-21T00:36:32.139Z,189.30
2018-01-21T00:38:38.353Z,175.47
2018-01-21T00:40:44.040Z,167.90
2018-01-21T00:42:50.286Z,149.97
2018-01-21T00:44:56.549Z,138.30
2018-01-21T00:47:06.179Z,128.10
2018-01-21T00:49:19.146Z,123.70
2018-01-21T00:51:25.271Z,115.03
2018-01-21T00:56:05.892Z,95.73
2018-01-21T00:58:19.578Z,90.83
2018-01-21T01:00:26.301Z,89.13
2018-01-21T01:02:32.839Z,85.20
2018-01-21T01:04:38.634Z,76.60
2018-01-21T01:06:44.270Z,73.87
2018-01-21T01:08:51.662Z,68.77
2018-01-21T01:10:57.668Z,67.47
2018-01-21T01:13:03.491Z,64.87
2018-01-21T01:15:09.954Z,64.20
2018-01-21T01:17:18.965Z,60.33
2018-01-21T01:19:25.707Z,56.03
2018-01-21T01:21:31.504Z,54.90
2018-01-21T01:23:37.608Z,51.63
2018-01-21T01:25:44.409Z,45.97
2018-01-21T01:27:50.793Z,47.30
2018-01-21T01:29:56.445Z,44.77
2018-01-21T01:32:02.323Z,41.77
2018-01-21T01:34:08.247Z,43.77
2018-01-21T01:36:13.889Z,43.53
2018-01-21T01:38:26.397Z,39.43
2018-01-21T01:40:32.254Z,35.83
2018-01-21T01:42:38.047Z,36.20
2018-01-21T01:44:43.832Z,31.80
2018-01-21T01:46:49.899Z,33.80
2018-01-21T01:48:58.315Z,31.97
2018-01-21T01:51:04.035Z,29.93
2018-01-21T01:53:10.241Z,28.03
2018-01-21T01:55:16.014Z,30.70
2018-01-21T01:57:21.626Z,26.03
2018-01-21T01:59:28.517Z,28.47
2018-01-21T02:01:35.005Z,26.20
2018-01-21T02:03:42.043Z,25.07
2018-01-21T02:05:47.922Z,22.50
2018-01-21T02:07:53.788Z,23.80
2018-01-21T02:10:00.212Z,22.87
2018-01-21T02:12:09.452Z,22.60
2018-01-21T02:14:15.591Z,18.67
2018-01-21T02:16:22.385Z,22.33
2018-01-21T02:18:29.072Z,17.53
2018-01-21T02:20:37.494Z,17.73
2018-01-21T02:22:44.601Z,19.97
2018-01-21T02:24:50.458Z,15.97
2018-01-21T02:26:57.249Z,17.40
2018-01-21T02:29:03.537Z,16.13
2018-01-21T02:31:09.555Z,16.80
2018-01-21T02:33:15.632Z,16.90
2018-01-21T02:35:21.995Z,14.00
2018-01-21T02:37:28.228Z,14.80
2018-01-21T02:39:34.532Z,14.40
2018-01-21T02:41:40.155Z,12.53
2018-01-21T02:43:48.927Z,13.30
2018-01-21T02:45:54.657Z,13.87
2018-01-21T02:48:00.342Z,11.57
2018-01-21T02:50:09.866Z,11.27
2018-01-21T02:52:15.723Z,12.40
2018-01-21T02:54:22.048Z,11.20
2018-01-21T02:56:29.875Z,11.10
2018-01-21T02:58:37.441Z,11.33
2018-01-21T03:00:45.281Z,10.53
2018-01-21T03:02:51.658Z,10.67
2018-01-21T03:04:58.239Z,10.60
2018-01-21T03:07:05.008Z,9.63
2018-01-21T03:09:10.741Z,9.83
2018-01-21T03:11:17.057Z,9.90
2018-01-21T03:13:23.327Z,9.17
2018-01-21T03:15:29.362Z,8.57
2018-01-21T03:17:35.250Z,9.07
2018-01-21T03:19:41.051Z,8.63
2018-01-21T03:21:47.357Z,9.20
2018-01-21T03:23:53.387Z,8.60
2018-01-21T03:25:59.202Z,9.00
2018-01-21T03:28:05.666Z,8.53
2018-01-21T03:30:11.654Z,7.97
2018-01-21T03:32:17.284Z,8.20
2018-01-21T03:34:23.218Z,8.10
2018-01-21T03:36:29.405Z,8.53
2018-01-21T03:38:35.300Z,7.70
2018-01-21T03:40:43.012Z,7.80
2018-01-21T03:42:48.735Z,7.80
2018-01-21T03:44:55.042Z,7.10
2018-01-21T03:47:01.981Z,6.80
2018-01-21T03:49:08.502Z,7.23
2018-01-21T03:51:14.587Z,7.00
2018-01-21T03:53:20.757Z,5.93
2018-01-21T03:55:26.394Z,6.60
2018-01-21T03:57:32.397Z,6.93
2018-01-21T03:59:38.221Z,6.00
2018-01-21T04:01:44.401Z,6.23
2018-01-21T04:03:49.990Z,5.40
2018-01-21T04:05:56.574Z,6.07
2018-01-21T04:08:04.379Z,5.90
2018-01-21T04:10:10.766Z,5.60
2018-01-21T04:12:17.428Z,5.87
2018-01-21T04:14:23.310Z,5.67
2018-01-21T04:16:29.561Z,5.37
2018-01-21T04:18:35.287Z,5.70
2018-01-21T04:20:41.495Z,5.17
2018-01-21T04:22:47.300Z,6.13
2018-01-21T04:24:53.493Z,5.43
2018-01-21T04:26:59.573Z,5.37
2018-01-21T04:29:06.297Z,5.40
2018-01-21T04:31:13.107Z,5.73
2018-01-21T04:33:19.408Z,5.23
2018-01-21T04:35:25.639Z,5.20
2018-01-21T04:37:33.781Z,5.13
2018-01-21T04:39:39.761Z,4.70
2018-01-21T04:41:46.846Z,4.43
2018-01-21T04:43:53.554Z,4.10
2018-01-21T04:45:59.964Z,5.53
2018-01-21T04:48:06.044Z,4.70
2018-01-21T04:50:11.728Z,4.57
2018-01-21T04:52:17.419Z,4.70
2018-01-21T04:56:40.629Z,5.03
2018-01-21T04:58:46.753Z,4.80
2018-01-21T16:10:42.694Z,496.27
2018-01-21T16:12:49.726Z,476.20
2018-01-21T16:14:57.309Z,487.23
2018-01-21T16:17:06.136Z,481.00
2018-01-21T16:19:12.461Z,476.40
2018-01-21T16:21:20.021Z,458.70
2018-01-21T16:23:27.247Z,450.87
2018-01-21T16:25:33.158Z,440.37
2018-01-21T16:27:40.346Z,425.37
2018-01-21T16:29:48.606Z,417.03
2018-01-21T16:31:54.596Z,408.53
2018-01-21T16:34:00.543Z,393.43
2018-01-21T16:36:06.498Z,375.87
2018-01-21T16:39:15.794Z,360.57
2018-01-21T16:41:23.010Z,344.93
2018-01-21T16:43:32.420Z,353.80
2018-01-21T16:45:39.010Z,325.63
2018-01-21T16:47:45.055Z,317.30
2018-01-21T16:49:51.181Z,305.10
2018-01-21T16:52:03.241Z,287.67
2018-01-21T16:54:09.771Z,280.20
2018-01-21T16:56:15.792Z,264.33
2018-01-21T16:58:27.821Z,262.67
2018-01-21T17:00:35.042Z,248.73
2018-01-21T17:02:41.194Z,243.93
2018-01-21T17:04:51.255Z,230.83
2018-01-21T17:06:59.029Z,241.60
2018-01-21T17:09:14.278Z,217.20
2018-01-21T17:11:21.330Z,206.63
2018-01-21T17:13:29.789Z,196.27
2018-01-21T17:16:02.705Z,781.30
2018-01-21T17:18:21.364Z,920.43
2018-01-21T17:20:34.343Z,689.97
2018-01-21T17:22:43.034Z,586.53
2018-01-21T17:24:54.156Z,542.43
2018-01-21T17:27:15.049Z,525.40
2018-01-21T17:31:58.204Z,488.93
2018-01-21T17:34:09.545Z,480.90
2018-01-21T17:36:19.443Z,467.57
2018-01-21T17:38:33.468Z,461.00
2018-01-21T17:40:40.893Z,452.00
2018-01-21T17:42:51.524Z,436.00
2018-01-21T17:45:02.586Z,433.70
2018-01-21T17:47:11.620Z,426.00
2018-01-21T17:49:20.993Z,401.07
2018-01-21T17:51:40.400Z,388.10
2018-01-21T17:53:49.761Z,376.90
2018-01-21T17:55:56.533Z,350.63
2018-01-21T17:58:02.989Z,346.03
2018-01-21T18:00:19.373Z,342.00
2018-01-21T18:02:29.767Z,320.70
2018-01-21T18:04:37.724Z,314.10
2018-01-21T18:06:46.866Z,310.80
2018-01-21T18:08:54.500Z,295.93
2018-01-21T18:11:03.777Z,281.13
2018-01-21T18:13:11.738Z,273.63
2018-01-21T18:15:19.627Z,258.50
2018-01-21T18:17:27.653Z,266.80
2018-01-21T18:19:35.915Z,253.37
2018-01-21T18:21:42.716Z,247.83
2018-01-21T18:23:57.001Z,244.30
2018-01-21T18:26:08.716Z,248.93
2018-01-21T18:28:33.516Z,238.53
2018-01-21T18:30:43.744Z,225.07
2018-01-21T18:33:42.296Z,205.87
2018-01-21T18:36:08.720Z,185.87
2018-01-21T18:38:21.693Z,173.97
2018-01-21T18:41:07.055Z,407.00
2018-01-21T18:43:21.841Z,723.53
2018-01-21T18:45:56.349Z,721.07
2018-01-21T18:48:30.648Z,625.93
2018-01-21T18:50:38.163Z,577.00
2018-01-21T18:52:47.422Z,1004.97
2018-01-21T18:54:54.667Z,752.57
2018-01-21T18:57:03.418Z,924.57
2018-01-21T18:59:11.667Z,759.47
2018-01-21T19:01:27.558Z,723.93
2018-01-21T19:03:43.501Z,692.77
2018-01-21T19:08:16.345Z,658.53
2018-01-21T19:10:34.328Z,638.93
2018-01-21T19:12:42.504Z,777.37
2018-01-21T19:14:55.417Z,949.07
2018-01-21T19:17:09.203Z,906.50
2018-01-21T19:21:45.864Z,802.80
2018-01-21T19:23:57.169Z,732.77
2018-01-21T19:26:07.160Z,712.50
2018-01-21T19:28:17.459Z,696.07
2018-01-21T19:30:28.220Z,673.33
2018-01-21T19:32:42.856Z,654.87
2018-01-21T19:35:09.576Z,749.13
2018-01-21T19:37:41.639Z,760.63
2018-01-21T19:40:03.355Z,806.83
2018-01-21T19:42:17.784Z,785.83
2018-01-21T19:44:28.918Z,753.83
2018-01-21T19:46:36.484Z,740.47
2018-01-21T19:48:46.171Z,736.57
2018-01-21T19:50:57.479Z,711.37
2018-01-21T19:53:05.848Z,695.23
2018-01-21T19:55:14.081Z,682.40
2018-01-21T19:57:23.370Z,680.70
2018-01-21T19:59:40.102Z,543.47
2018-01-21T20:01:50.394Z,466.27
2018-01-21T20:04:09.120Z,461.23
2018-01-21T20:06:17.041Z,460.57
2018-01-21T20:08:23.101Z,453.60
2018-01-21T20:10:34.637Z,443.03
2018-01-21T20:12:44.136Z,439.90
2018-01-21T20:14:52.810Z,389.37
2018-01-21T20:17:15.268Z,412.93
2018-01-21T20:19:25.856Z,338.60
2018-01-21T20:21:32.947Z,322.53
2018-01-21T20:23:40.579Z,320.60
2018-01-21T20:25:50.598Z,298.30
2018-01-21T20:27:59.199Z,279.43
2018-01-21T20:30:17.655Z,258.53
2018-01-21T20:32:38.901Z,237.00
2018-01-21T20:34:56.500Z,219.93
2018-01-21T20:37:04.708Z,210.43
2018-01-21T20:39:13.318Z,219.43
2018-01-21T20:41:26.602Z,187.13
2018-01-21T20:43:32.888Z,184.30
2018-01-21T20:45:57.730Z,163.50
2018-01-21T20:53:14.952Z,129.23
2018-01-21T20:55:32.336Z,123.60
2018-01-21T21:00:06.649Z,111.37
2018-01-21T21:02:14.677Z,273.33
2018-01-21T21:04:22.310Z,165.50
2018-01-21T21:06:31.103Z,524.83
2018-01-21T21:08:39.526Z,915.67
2018-01-21T21:10:47.420Z,144.27
2018-01-21T21:12:54.533Z,170.73
2018-01-21T21:15:07.469Z,89.23
2018-01-21T21:17:17.527Z,75.40
2018-01-21T21:19:28.014Z,60.77
2018-01-21T21:21:37.635Z,56.83
2018-01-21T21:23:45.162Z,52.90
2018-01-21T21:25:52.904Z,49.30
2018-01-21T21:28:02.189Z,51.13
2018-01-21T21:30:08.951Z,313.77
2018-01-21T21:32:16.139Z,45.60
2018-01-21T21:34:22.604Z,42.70
2018-01-21T21:36:32.146Z,220.27
2018-01-21T21:38:38.282Z,56.40
2018-01-21T21:40:44.658Z,64.93
2018-01-21T21:42:51.913Z,38.30
2018-01-21T21:45:01.812Z,935.20
2018-01-21T21:47:08.877Z,88.50
2018-01-21T21:54:01.354Z,1009.53
2018-01-21T21:58:37.184Z,659.27
2018-01-21T22:00:46.649Z,29.43
2018-01-21T22:02:53.771Z,307.27
2018-01-21T22:05:02.840Z,281.53
2018-01-21T22:07:22.515Z,23.73
2018-01-21T22:09:34.748Z,20.97
2018-01-21T22:11:41.348Z,19.03
2018-01-21T22:13:48.441Z,199.50
2018-01-21T22:15:56.137Z,387.17
2018-01-21T22:18:02.439Z,31.00
2018-01-21T22:20:09.237Z,20.37
2018-01-21T22:22:18.374Z,48.93
2018-01-21T22:24:26.710Z,120.63
2018-01-21T22:26:33.290Z,17.83
2018-01-21T22:28:39.853Z,15.67
2018-01-21T22:30:48.624Z,14.30
2018-01-21T22:32:56.214Z,457.27
2018-01-21T22:35:02.129Z,633.70
2018-01-21T22:37:08.175Z,40.83
2018-01-21T22:39:14.338Z,19.40
2018-01-21T22:41:20.348Z,15.20
2018-01-21T22:43:29.136Z,1238.57
2018-01-21T22:45:36.366Z,17.73
2018-01-21T22:47:43.510Z,12.93
2018-01-21T22:49:50.862Z,539.80
2018-01-21T22:51:59.301Z,363.33
2018-01-21T22:54:11.560Z,15.83
2018-01-21T22:56:17.936Z,42.77
2018-01-21T22:58:26.422Z,466.47
2018-01-21T23:00:32.795Z,30.03
2018-01-21T23:02:39.102Z,954.67
2018-01-21T23:04:45.719Z,1152.23
2018-01-21T23:09:27.132Z,194.43
2018-01-21T23:11:33.353Z,574.73
2018-01-21T23:13:41.047Z,570.63
2018-01-21T23:15:49.182Z,650.73
2018-01-21T23:17:55.675Z,679.43
2018-01-21T23:20:02.199Z,629.27
2018-01-21T23:22:08.408Z,799.17
2018-01-21T23:24:15.716Z,120.30
2018-01-21T23:26:21.978Z,281.03
2018-01-21T23:28:31.078Z,467.80
2018-01-21T23:30:37.904Z,779.53
2018-01-21T23:32:43.987Z,36.40
2018-01-21T23:34:50.471Z,306.37
2018-01-21T23:36:58.701Z,1033.80
2018-01-21T23:39:05.453Z,503.90
2018-01-21T23:41:11.378Z,699.50
2018-01-21T23:43:17.360Z,503.20
2018-01-21T23:45:23.309Z,113.23
2018-01-21T23:47:31.165Z,25.83
2018-01-21T23:49:37.353Z,17.53
2018-01-21T23:51:43.526Z,12.03
2018-01-21T23:53:50.172Z,12.87
2018-01-21T23:55:56.910Z,10.33
2018-01-21T23:58:02.741Z,9.07
